Black River, Michigan
Current Conditions -  °F | °C
As of 5:54 PM on Friday 28 Nov 2014 (Local Time) from KAPN Reporting Station
Light Snow Light Snow  
Wind Chill: 11°   Ceiling: 11000
Heat Index: 21°   Visibility: 9mi
Dew Point: 16°   Wind: 8mph
Humidity: 81%   Direction: 170°S
Pressure: 30.12"   Gusts: NA
Location:  44.82°N, 83.3°W
Report Text: KAPN 282254Z AUTO 17007KT 9SM -SN FEW055 OVC110 M06/M09 A3012 RMK AO2 SNB53 SLP212 P0000 T10611089
Loading
Personal Weather Stations






























Interactive Weather Map New forecast layout! Learn more

10-Day Weather Forecast

Advertisements
Track Severe Weather on mobile